Terminal Aerodrome Forecast
Issued by NWS Corpus Christi, TX

Home | Current Version | Previous Version | Text Only | Print | Product List | Glossary On
Versions: 1 2 3 4 5 6 7 8 9 10 11 12 13 14 15 16 17 18 19 20 21 22 23 24 25 26 27 28 29 30 31 32 33 34 35 36
000
FTUS44 KCRP 260529
TAFCRP
TAF
KCRP 260529Z 2606/2706 14007KT 4SM BR OVC003
     FM260800 15004KT 3SM BR BKN005
      TEMPO 2609/2613 2SM BR BKN003 OVC006
     FM261400 16004KT 5SM BR SCT009 BKN015 BKN025
     FM261600 18008KT P6SM SCT015 BKN025 BKN035
     FM261900 13011KT P6SM FEW009 SCT015 BKN024
     FM270500 14011KT 4SM BR OVC015=

USA.gov is the U.S. government's official web portal to all federal, state and local government web resources and services.